Time;durP1;ratioP1;P1;durP2;ratioP2;P2;SDS_P1;SDS_P2;PMS_P1;PMS_P2;Temp;Humidity;BMP_temperature;BMP_pressure;BME280_temperature;BME280_humidity;BME280_pressure;Samples;Min_cycle;Max_cycle;Signal;HPM_P1;HPM_P2
2023/09/05 00:00:16;;;;;;;2.47;2.00;;;;;;;20.14;45.47;97278.97;6240029;23;20017;-78
2023/09/05 00:02:48;;;;;;;2.28;2.03;;;;;;;20.14;45.90;97275.53;6239980;23;20039;-79
2023/09/05 00:05:19;;;;;;;3.03;2.10;;;;;;;20.12;45.76;97281.03;6239815;23;20020;-79
2023/09/05 00:07:50;;;;;;;3.92;2.20;;;;;;;20.12;45.76;97285.53;6240981;23;20029;-80
2023/09/05 00:10:20;;;;;;;2.42;1.75;;;;;;;20.08;45.92;97274.56;6240474;23;20028;-80
2023/09/05 00:12:51;;;;;;;2.67;1.95;;;;;;;20.05;45.51;97276.84;6240267;23;20017;-80
2023/09/05 00:15:23;;;;;;;4.13;2.30;;;;;;;20.02;46.00;97280.78;6240716;23;20008;-80
2023/09/05 00:17:52;;;;;;;4.25;2.17;;;;;;;19.99;45.85;97283.88;6240233;23;20072;-78
2023/09/05 00:20:25;;;;;;;2.90;2.03;;;;;;;19.95;46.57;97269.47;6214930;23;20047;-80
2023/09/05 00:22:58;;;;;;;2.40;2.00;;;;;;;19.95;46.50;97270.28;6239833;23;20027;-80
2023/09/05 00:25:28;;;;;;;2.53;2.08;;;;;;;19.91;46.37;97278.91;6239912;23;20019;-79
2023/09/05 00:27:57;;;;;;;2.03;1.80;;;;;;;19.89;46.72;97271.16;6240089;23;20117;-80
2023/09/05 00:30:29;;;;;;;4.45;2.08;;;;;;;19.87;46.60;97273.22;6240302;23;20044;-79
2023/09/05 00:33:02;;;;;;;2.22;2.00;;;;;;;19.87;46.81;97277.72;6240436;23;20024;-80
2023/09/05 00:35:34;;;;;;;3.58;1.88;;;;;;;19.83;46.92;97276.56;6243462;22;20017;-80
2023/09/05 00:38:04;;;;;;;2.97;2.08;;;;;;;19.80;47.10;97266.41;6243652;22;20001;-80
2023/09/05 00:40:34;;;;;;;3.08;2.22;;;;;;;19.80;47.54;97269.06;6243727;22;20040;-80
2023/09/05 00:43:03;;;;;;;3.67;2.10;;;;;;;19.80;47.23;97261.13;6244061;22;20008;-80
2023/09/05 00:45:34;;;;;;;3.42;2.13;;;;;;;19.79;47.24;97267.44;6218160;22;20008;-80
2023/09/05 00:48:07;;;;;;;2.33;2.05;;;;;;;19.77;47.29;97257.09;6241594;22;20015;-79
2023/09/05 00:50:40;;;;;;;3.90;2.28;;;;;;;19.74;47.44;97258.34;6239070;23;20035;-79
2023/09/05 00:53:11;;;;;;;3.30;2.00;;;;;;;19.77;47.77;97257.09;6239196;23;20021;-80
2023/09/05 00:55:42;;;;;;;2.45;2.00;;;;;;;19.79;47.83;97264.78;6239592;23;20041;-80
2023/09/05 00:58:13;;;;;;;3.47;2.70;;;;;;;19.79;48.33;97260.31;6240163;23;20023;-80
2023/09/05 01:00:43;;;;;;;2.45;2.20;;;;;;;19.77;47.69;97262.38;6240116;23;20031;-79
2023/09/05 01:03:13;;;;;;;2.53;2.00;;;;;;;19.72;48.08;97255.13;6240008;23;20021;-79
2023/09/05 01:05:47;;;;;;;3.75;2.22;;;;;;;19.71;48.45;97261.44;6240191;23;20103;-80
2023/09/05 01:08:25;;;;;;;1.90;1.70;;;;;;;19.71;48.48;97261.44;6240256;23;20012;-80
2023/09/05 01:11:08;;;;;;;2.13;1.90;;;;;;;19.72;48.57;97259.59;6239723;23;20016;-79
2023/09/05 01:13:38;;;;;;;5.78;2.25;;;;;;;19.70;48.61;97257.19;6241340;23;20047;-80
2023/09/05 01:16:12;;;;;;;4.82;2.10;;;;;;;19.66;48.61;97260.47;6243403;23;20076;-79
2023/09/05 01:18:41;;;;;;;3.45;2.00;;;;;;;19.62;48.93;97252.16;6242853;23;20021;-80
2023/09/05 01:21:21;;;;;;;2.83;2.20;;;;;;;19.56;48.76;97260.97;6243428;23;20012;-80
2023/09/05 01:23:55;;;;;;;2.60;2.22;;;;;;;19.54;49.54;97263.03;6243528;23;20044;-80
2023/09/05 01:26:26;;;;;;;2.28;2.00;;;;;;;19.52;49.04;97254.53;6243023;23;20074;-80
2023/09/05 01:28:59;;;;;;;3.50;2.38;;;;;;;19.51;49.25;97261.66;6217882;23;20012;-80
2023/09/05 01:31:28;;;;;;;2.90;2.15;;;;;;;19.49;49.31;97249.69;6242919;23;20020;-79
2023/09/05 01:33:58;;;;;;;2.55;2.00;;;;;;;19.47;49.41;97259.69;6242866;23;20015;-80
2023/09/05 01:36:26;;;;;;;2.35;2.15;;;;;;;19.46;50.13;97258.88;6243023;23;20016;-79
2023/09/05 01:38:56;;;;;;;2.13;1.80;;;;;;;19.47;49.95;97263.13;6243144;23;20075;-80
2023/09/05 01:41:31;;;;;;;2.08;1.88;;;;;;;19.47;49.67;97257.84;6243241;23;20068;-80
2023/09/05 01:44:02;;;;;;;4.80;2.35;;;;;;;19.46;49.83;97255.41;6243388;23;20025;-79
2023/09/05 01:46:33;;;;;;;2.67;2.00;;;;;;;19.44;49.65;97246.88;6242964;23;20017;-79
2023/09/05 01:49:05;;;;;;;2.75;1.80;;;;;;;19.42;50.62;97248.97;6242598;23;20032;-80
2023/09/05 01:51:34;;;;;;;2.28;2.08;;;;;;;19.41;50.11;97244.69;6243209;23;20016;-79
2023/09/05 01:54:04;;;;;;;4.32;2.08;;;;;;;19.40;49.90;97249.19;6242945;23;20011;-80
2023/09/05 01:56:36;;;;;;;2.45;1.95;;;;;;;19.40;51.09;97251.03;6242361;23;20028;-80
2023/09/05 01:59:07;;;;;;;3.60;2.53;;;;;;;19.37;50.24;97256.75;6243160;23;20012;-80
2023/09/05 02:01:41;;;;;;;4.10;2.42;;;;;;;19.31;50.40;97253.97;6243575;23;20025;-80
2023/09/05 02:04:12;;;;;;;2.63;2.22;;;;;;;19.29;51.33;97249.94;6242945;23;20024;-80
2023/09/05 02:06:42;;;;;;;2.22;1.98;;;;;;;19.26;51.18;97253.00;6242612;23;20017;-79
2023/09/05 02:09:11;;;;;;;2.72;2.20;;;;;;;19.23;50.82;97256.91;6242785;23;20358;-80
2023/09/05 02:11:43;;;;;;;2.35;1.80;;;;;;;19.21;51.41;97258.16;6243081;23;20024;-80
2023/09/05 02:14:13;;;;;;;3.97;2.70;;;;;;;19.22;51.13;97255.28;6243308;23;20065;-79
2023/09/05 02:16:43;;;;;;;4.28;2.47;;;;;;;19.21;50.94;97248.38;6242263;23;20076;-80
2023/09/05 02:19:15;;;;;;;3.35;2.10;;;;;;;19.22;51.53;97260.59;6242513;23;20036;-79
2023/09/05 02:21:45;;;;;;;3.25;2.50;;;;;;;19.23;51.06;97256.09;6242820;23;20020;-80
2023/09/05 02:24:17;;;;;;;7.22;2.60;;;;;;;19.22;51.40;97263.22;6243802;23;20004;-80
2023/09/05 02:26:50;;;;;;;2.85;2.08;;;;;;;19.22;51.66;97255.28;6240626;23;19996;-80
2023/09/05 02:29:19;;;;;;;2.75;2.40;;;;;;;19.24;52.22;97258.53;6241989;23;20031;-80
2023/09/05 02:31:50;;;;;;;2.53;2.25;;;;;;;19.25;53.40;97265.41;6240882;23;20036;-80
2023/09/05 02:34:20;;;;;;;3.45;2.30;;;;;;;19.25;52.53;97254.84;6241556;23;20039;-80
2023/09/05 02:36:54;;;;;;;3.53;2.15;;;;;;;19.26;52.50;97255.63;6242126;22;20004;-80
2023/09/05 02:39:23;;;;;;;2.78;2.25;;;;;;;19.22;51.79;97249.16;6245252;22;20020;-80
2023/09/05 02:41:54;;;;;;;2.33;2.13;;;;;;;19.18;53.50;97251.47;6245163;22;20004;-80
2023/09/05 02:44:23;;;;;;;2.70;2.30;;;;;;;19.19;52.38;97258.34;6244534;22;20020;-80
2023/09/05 02:46:52;;;;;;;2.30;2.05;;;;;;;19.15;52.14;97251.88;6241921;23;20005;-79
2023/09/05 02:49:24;;;;;;;2.58;2.03;;;;;;;19.13;53.21;97251.31;6241852;23;20047;-80
2023/09/05 02:51:53;;;;;;;3.97;2.35;;;;;;;19.12;52.31;97249.69;6241400;23;20036;-79
2023/09/05 02:54:23;;;;;;;2.90;2.58;;;;;;;19.08;52.27;97254.59;6243040;22;20198;-80
2023/09/05 02:56:54;;;;;;;4.38;2.47;;;;;;;19.07;52.84;97252.19;6240758;23;20020;-80
2023/09/05 02:59:24;;;;;;;2.97;2.25;;;;;;;19.07;53.00;97245.06;6241028;23;20072;-81
2023/09/05 03:01:54;;;;;;;4.63;2.47;;;;;;;19.04;52.86;97256.06;6241070;23;20028;-79
2023/09/05 03:04:23;;;;;;;3.33;2.35;;;;;;;19.00;52.82;97244.34;6240624;23;20051;-80
2023/09/05 03:06:53;;;;;;;3.10;2.60;;;;;;;18.97;52.96;97257.19;6240988;23;20016;-79
2023/09/05 03:09:22;;;;;;;2.33;2.13;;;;;;;18.94;53.60;97256.59;6240870;23;20028;-80
2023/09/05 03:11:54;;;;;;;3.55;2.50;;;;;;;18.98;53.70;97254.31;6240635;23;20455;-80
2023/09/05 03:14:23;;;;;;;2.60;2.40;;;;;;;19.00;53.95;97254.09;6215517;23;20044;-80
2023/09/05 03:16:52;;;;;;;4.32;2.50;;;;;;;19.02;53.67;97249.38;6240982;23;20051;-80
2023/09/05 03:19:22;;;;;;;4.95;2.60;;;;;;;19.04;53.57;97248.13;6240544;23;20064;-80
2023/09/05 03:21:52;;;;;;;6.00;3.00;;;;;;;18.99;53.42;97252.47;6241323;23;20029;-78
2023/09/05 03:24:25;;;;;;;3.22;2.90;;;;;;;18.87;53.47;97247.94;6240575;23;20032;-80
2023/09/05 03:26:55;;;;;;;3.42;2.47;;;;;;;18.82;54.75;97250.41;6240329;23;20052;-80
2023/09/05 03:29:27;;;;;;;4.55;2.50;;;;;;;18.82;54.52;97239.81;6240570;23;20017;-79
2023/09/05 03:31:57;;;;;;;2.75;2.03;;;;;;;18.86;54.90;97245.50;6240505;23;20024;-80
2023/09/05 03:34:26;;;;;;;4.03;2.35;;;;;;;18.86;53.94;97246.28;6240628;23;20016;-80
2023/09/05 03:36:56;;;;;;;4.47;2.20;;;;;;;18.78;54.06;97237.84;6240429;23;20009;-80
2023/09/05 03:39:25;;;;;;;3.10;2.67;;;;;;;18.74;54.26;97248.03;6240350;23;20023;-79
2023/09/05 03:41:56;;;;;;;3.67;2.65;;;;;;;18.68;54.35;97243.59;6240823;23;20025;-80
2023/09/05 03:44:25;;;;;;;4.85;2.83;;;;;;;18.68;55.99;97243.59;6240243;23;20031;-79
2023/09/05 03:46:57;;;;;;;4.43;2.28;;;;;;;18.71;55.34;97253.72;6239835;23;20039;-80
2023/09/05 03:49:26;;;;;;;3.78;2.17;;;;;;;18.74;55.34;97250.66;6240436;23;20032;-80
2023/09/05 03:51:57;;;;;;;3.22;2.45;;;;;;;18.79;54.89;97250.03;6239896;23;20004;-79
2023/09/05 03:54:26;;;;;;;2.88;2.22;;;;;;;18.79;55.28;97253.47;6240853;23;20078;-80
2023/09/05 03:56:59;;;;;;;3.97;2.42;;;;;;;18.79;55.50;97248.19;6240249;23;20011;-80
2023/09/05 03:59:28;;;;;;;3.15;2.33;;;;;;;18.77;55.24;97247.56;6240044;23;20028;-80
2023/09/05 04:01:57;;;;;;;2.70;2.30;;;;;;;18.77;55.17;97244.13;6240761;23;20047;-78
2023/09/05 04:04:26;;;;;;;4.18;2.88;;;;;;;18.73;54.77;97246.38;6240539;23;20020;-79
2023/09/05 04:06:56;;;;;;;4.85;3.08;;;;;;;18.63;54.96;97240.78;6213869;23;20048;-80
2023/09/05 04:09:25;;;;;;;4.60;2.65;;;;;;;18.58;55.88;97243.28;6239783;23;20033;-80
2023/09/05 04:11:54;;;;;;;3.15;2.53;;;;;;;18.57;56.45;97239.84;6238995;23;20008;-80
2023/09/05 04:14:25;;;;;;;3.40;2.58;;;;;;;18.57;57.44;97242.47;6213939;23;20055;-80
2023/09/05 04:16:55;;;;;;;3.80;2.78;;;;;;;18.61;56.72;97248.16;6239488;23;20028;-80
2023/09/05 04:19:24;;;;;;;3.92;2.30;;;;;;;18.61;56.45;97245.50;6240404;23;20075;-80
2023/09/05 04:21:53;;;;;;;4.82;2.97;;;;;;;18.60;55.66;97251.78;6239666;23;20040;-79
2023/09/05 04:24:23;;;;;;;2.60;2.40;;;;;;;18.58;56.37;97248.56;6240802;23;20047;-80
2023/09/05 04:26:54;;;;;;;3.38;2.30;;;;;;;18.58;56.19;97245.91;6239999;23;20016;-79
2023/09/05 04:29:25;;;;;;;3.63;3.00;;;;;;;18.52;55.85;97245.78;6239881;23;20035;-79
2023/09/05 04:31:55;;;;;;;9.73;2.90;;;;;;;18.44;55.93;97242.59;6240971;23;20017;-80
2023/09/05 04:34:24;;;;;;;9.25;2.72;;;;;;;18.40;55.99;97246.69;6240072;23;20024;-80
2023/09/05 04:36:56;;;;;;;2.97;2.50;;;;;;;18.38;56.02;97243.44;6214563;23;20084;-80
2023/09/05 04:39:25;;;;;;;5.60;2.60;;;;;;;18.39;57.75;97245.88;6239499;23;20028;-80
2023/09/05 04:41:54;;;;;;;3.97;2.63;;;;;;;18.46;57.67;97241.34;6239689;23;20017;-80
2023/09/05 04:44:27;;;;;;;4.57;3.03;;;;;;;18.47;57.05;97248.22;6240013;23;20068;-79
2023/09/05 04:47:13;;;;;;;;;;;;;;;18.49;56.39;97245.38;6240055;23;20027;-80
2023/09/05 04:49:45;;;;;;;4.65;3.00;;;;;;;18.49;57.43;97246.19;6239907;23;19915;-79
2023/09/05 04:52:14;;;;;;;;;;;;;;;18.51;57.03;97244.13;6240497;23;20025;-78
2023/09/05 04:54:45;;;;;;;3.55;2.88;;;;;;;18.56;56.64;97245.31;6239502;23;20280;-80
2023/09/05 04:57:16;;;;;;;3.05;2.72;;;;;;;18.57;56.17;97247.75;6240500;23;20020;-80
2023/09/05 04:59:47;;;;;;;3.53;2.40;;;;;;;18.60;57.12;97257.09;6239456;23;20024;-80
2023/09/05 05:02:17;;;;;;;3.13;2.60;;;;;;;18.63;56.61;97254.00;6240081;23;20047;-80
2023/09/05 05:04:46;;;;;;;3.60;2.60;;;;;;;18.65;56.43;97250.13;6240297;23;20047;-79
2023/09/05 05:07:15;;;;;;;4.03;2.95;;;;;;;18.66;56.40;97256.22;6239658;23;20068;-80
2023/09/05 05:09:44;;;;;;;4.32;2.85;;;;;;;18.63;56.20;97256.63;6239510;23;20024;-79
2023/09/05 05:12:15;;;;;;;3.97;2.72;;;;;;;18.65;56.63;97267.81;6239805;23;20025;-79
2023/09/05 05:14:46;;;;;;;4.00;2.67;;;;;;;18.63;56.16;97268.03;6239513;23;20020;-80
2023/09/05 05:17:15;;;;;;;3.72;2.70;;;;;;;18.59;55.80;97272.13;6240088;23;20028;-79
2023/09/05 05:19:45;;;;;;;6.25;2.95;;;;;;;18.52;56.12;97269.53;6239774;23;20021;-80
2023/09/05 05:22:14;;;;;;;4.95;2.42;;;;;;;18.49;56.26;97259.41;6239893;23;20008;-80
2023/09/05 05:24:42;;;;;;;6.78;3.50;;;;;;;18.46;56.37;97264.31;6239932;23;20021;-80
2023/09/05 05:27:12;;;;;;;4.55;2.70;;;;;;;18.42;56.34;97256.00;6240029;23;20008;-80
2023/09/05 05:29:41;;;;;;;4.20;2.33;;;;;;;18.41;56.34;97270.25;6214344;23;20020;-80
2023/09/05 05:32:11;;;;;;;3.25;2.60;;;;;;;18.41;57.31;97254.41;6239273;23;20009;-79
2023/09/05 05:34:40;;;;;;;3.03;2.42;;;;;;;18.47;57.97;97261.44;6239246;23;20028;-80
2023/09/05 05:37:10;;;;;;;4.47;2.60;;;;;;;18.46;57.06;97259.84;6238873;23;20414;-79
2023/09/05 05:39:39;;;;;;;3.20;2.50;;;;;;;18.43;56.55;97262.94;6239722;23;20021;-80
2023/09/05 05:42:09;;;;;;;5.78;2.60;;;;;;;18.43;56.47;97270.84;6240441;23;20020;-80
2023/09/05 05:44:39;;;;;;;3.17;2.67;;;;;;;18.38;56.66;97257.47;6240561;23;20044;-79
2023/09/05 05:47:10;;;;;;;3.58;2.80;;;;;;;18.31;56.53;97256.72;6239659;23;20023;-80
2023/09/05 05:49:39;;;;;;;3.80;2.83;;;;;;;18.30;57.29;97252.44;6240126;23;20032;-80
2023/09/05 05:52:10;;;;;;;3.60;2.50;;;;;;;18.32;56.82;97255.66;6239678;23;20473;-80
2023/09/05 05:54:39;;;;;;;4.50;2.55;;;;;;;18.31;56.83;97254.88;6240599;23;20020;-80
2023/09/05 05:57:08;;;;;;;3.63;2.38;;;;;;;18.28;56.84;97260.59;6218687;22;20028;-78
2023/09/05 05:59:36;;;;;;;3.92;2.47;;;;;;;18.28;56.97;97259.78;6226905;23;20028;-78
2023/09/05 06:02:05;;;;;;;3.20;2.50;;;;;;;18.25;56.96;97258.34;6217640;23;20016;-78
2023/09/05 06:04:35;;;;;;;6.13;2.30;;;;;;;18.23;57.13;97270.16;6216630;23;20039;-78
2023/09/05 06:07:03;;;;;;;2.17;1.98;;;;;;;18.21;56.99;97264.28;6216863;23;20020;-78
2023/09/05 06:09:32;;;;;;;3.80;2.67;;;;;;;18.20;57.17;97257.41;6216588;23;20017;-78
2023/09/05 06:12:01;;;;;;;2.50;2.22;;;;;;;18.22;57.26;97250.06;6216665;23;20052;-78
2023/09/05 06:14:29;;;;;;;3.00;2.10;;;;;;;18.25;57.43;97254.91;6217057;23;20051;-78
2023/09/05 06:16:58;;;;;;;4.15;2.13;;;;;;;18.25;57.19;97253.06;6216678;23;20458;-78
2023/09/05 06:19:27;;;;;;;2.53;2.33;;;;;;;18.26;57.33;97248.63;6216778;23;20025;-78
2023/09/05 06:21:58;;;;;;;2.35;2.05;;;;;;;18.29;57.32;97250.81;6216471;23;20024;-78
2023/09/05 06:24:27;;;;;;;3.55;2.75;;;;;;;18.31;57.03;97246.16;6216527;23;20017;-78
2023/09/05 06:26:56;;;;;;;2.72;2.30;;;;;;;18.38;57.15;97252.16;6216256;23;20514;-78
2023/09/05 06:29:25;;;;;;;6.22;2.10;;;;;;;18.43;56.73;97249.72;6216367;23;20019;-78
2023/09/05 06:31:54;;;;;;;2.78;2.58;;;;;;;18.47;56.91;97244.78;6217055;23;20020;-78
2023/09/05 06:34:22;;;;;;;3.65;2.05;;;;;;;18.56;56.78;97253.25;6216943;23;20397;-78
2023/09/05 06:36:51;;;;;;;2.30;1.90;;;;;;;18.66;56.92;97258.88;6216485;23;20021;-78
2023/09/05 06:39:21;;;;;;;5.68;2.50;;;;;;;18.79;56.35;97253.47;6217189;23;20397;-78
2023/09/05 06:41:50;;;;;;;2.97;2.13;;;;;;;18.89;56.06;97245.03;6216895;23;20032;-78
2023/09/05 06:44:19;;;;;;;3.47;2.40;;;;;;;18.99;55.66;97252.47;6216780;23;20060;-78
2023/09/05 06:46:48;;;;;;;2.22;2.03;;;;;;;19.06;55.42;97243.44;6216120;23;20016;-78
2023/09/05 06:49:17;;;;;;;2.50;1.80;;;;;;;19.14;55.12;97259.03;6216471;23;20016;-78
2023/09/05 06:51:45;;;;;;;2.72;2.20;;;;;;;19.22;54.85;97249.16;6216230;23;20201;-78
2023/09/05 06:54:14;;;;;;;2.35;1.88;;;;;;;19.33;55.07;97251.91;6216854;23;20025;-78
2023/09/05 06:56:45;;;;;;;5.30;2.28;;;;;;;19.47;54.51;97251.75;6216119;23;20017;-78
2023/09/05 06:59:18;;;;;;;3.38;1.83;;;;;;;19.59;54.86;97249.97;6216640;23;20103;-78
2023/09/05 07:01:47;;;;;;;3.35;2.03;;;;;;;19.72;54.15;97252.47;6217017;23;20402;-78
2023/09/05 07:04:15;;;;;;;6.60;2.10;;;;;;;19.83;53.38;97248.25;6216326;23;20087;-78
2023/09/05 07:06:47;;;;;;;4.00;2.05;;;;;;;19.90;52.97;97254.25;6190551;23;20023;-78
2023/09/05 07:09:16;;;;;;;3.42;2.13;;;;;;;19.98;53.34;97252.31;6216447;23;20020;-78
2023/09/05 07:11:46;;;;;;;3.20;2.10;;;;;;;20.10;52.83;97256.63;6216137;23;20096;-78
2023/09/05 07:14:15;;;;;;;2.28;2.08;;;;;;;20.21;52.57;97244.44;6217271;23;20019;-78
2023/09/05 07:16:44;;;;;;;4.10;1.92;;;;;;;20.32;52.41;97253.44;6216313;23;20024;-78
2023/09/05 07:19:13;;;;;;;3.10;2.15;;;;;;;20.44;52.13;97245.50;6216098;23;20355;-78
2023/09/05 07:21:41;;;;;;;5.18;1.88;;;;;;;20.53;51.83;97250.25;6216056;23;20048;-78
2023/09/05 07:24:12;;;;;;;5.30;2.10;;;;;;;20.63;51.40;97246.25;6216649;23;20024;-78
2023/09/05 07:26:41;;;;;;;3.05;2.10;;;;;;;20.75;50.94;97241.75;6215264;23;20024;-78
2023/09/05 07:29:12;;;;;;;2.78;1.88;;;;;;;20.88;51.00;97248.66;6216668;23;20051;-78
2023/09/05 07:31:42;;;;;;;2.53;2.00;;;;;;;20.99;50.69;97247.88;6216816;23;20032;-78
2023/09/05 07:34:12;;;;;;;4.75;2.50;;;;;;;21.12;50.20;97247.63;6216654;23;20080;-78
2023/09/05 07:36:41;;;;;;;3.38;2.28;;;;;;;21.26;50.42;97253.47;6216535;23;20067;-78
2023/09/05 07:39:10;;;;;;;3.15;1.88;;;;;;;21.44;50.15;97249.06;6216460;23;20051;-78
2023/09/05 07:41:42;;;;;;;4.28;2.28;;;;;;;21.58;49.48;97255.69;6216088;23;20020;-78
2023/09/05 07:44:15;;;;;;;2.70;2.22;;;;;;;21.68;48.90;97261.22;6216449;23;20104;-78
2023/09/05 07:46:44;;;;;;;3.40;1.70;;;;;;;21.85;48.62;97281.72;6224157;23;20052;-79
2023/09/05 07:49:15;;;;;;;4.05;1.83;;;;;;;21.95;47.90;97277.41;6190205;23;20051;-79
2023/09/05 07:51:48;;;;;;;4.35;1.90;;;;;;;21.98;47.31;97276.13;6215967;23;20024;-78
2023/09/05 07:54:20;;;;;;;4.95;1.80;;;;;;;22.01;47.52;97275.63;6216198;23;20021;-78
2023/09/05 07:56:50;;;;;;;2.53;1.90;;;;;;;22.12;47.09;97279.28;6216067;23;20017;-79
2023/09/05 07:59:21;;;;;;;1.75;1.65;;;;;;;22.28;47.18;97280.38;6216232;23;20079;-79
2023/09/05 08:01:55;;;;;;;2.55;1.90;;;;;;;22.44;47.14;97274.28;6216595;23;20021;-79
2023/09/05 08:04:25;;;;;;;2.67;1.80;;;;;;;22.63;46.34;97288.16;6216063;23;20407;-79
2023/09/05 08:09:41;;;;;;;4.03;1.65;;;;;;;22.99;45.49;97286.81;6225664;23;20023;-79
2023/09/05 08:15:21;;;;;;;1.88;1.70;;;;;;;23.54;44.87;97284.38;6215729;23;20020;-78
2023/09/05 08:17:54;;;;;;;2.65;1.40;;;;;;;23.77;45.35;97281.47;6216729;23;20024;-79
2023/09/05 08:20:24;;;;;;;3.00;1.55;;;;;;;24.08;44.37;97284.47;6216637;23;20078;-79
2023/09/05 08:23:08;;;;;;;3.47;1.42;;;;;;;24.33;43.57;97288.41;6216169;23;20020;-79
2023/09/05 08:25:36;;;;;;;2.40;1.70;;;;;;;24.59;43.40;97287.59;6210472;23;20091;-80
2023/09/05 08:28:05;;;;;;;2.17;1.67;;;;;;;24.84;42.46;97281.66;6214982;23;20327;-80
2023/09/05 08:30:34;;;;;;;1.80;1.35;;;;;;;25.12;42.03;97285.00;6215649;23;20039;-80
2023/09/05 08:33:02;;;;;;;3.20;1.17;;;;;;;25.47;41.78;97283.59;6215341;23;20074;-80
2023/09/05 08:35:30;;;;;;;1.67;1.35;;;;;;;25.82;40.97;97277.59;6214867;23;20373;-82
2023/09/05 08:38:02;;;;;;;3.28;1.27;;;;;;;26.44;39.89;97278.50;6215355;23;20020;-80
2023/09/05 08:40:30;;;;;;;2.72;1.27;;;;;;;27.57;37.85;97274.84;6215264;23;20020;-80
2023/09/05 08:42:57;;;;;;;2.58;1.65;;;;;;;28.76;35.24;97282.69;6215425;23;20029;-79
2023/09/05 08:45:27;;;;;;;2.15;1.23;;;;;;;29.60;33.37;97276.16;6216341;23;20017;-80
2023/09/05 08:47:56;;;;;;;1.95;1.60;;;;;;;30.28;32.28;97277.69;6217009;23;20024;-80
2023/09/05 08:50:27;;;;;;;2.10;1.60;;;;;;;31.05;31.45;97279.13;6216353;23;20025;-79
2023/09/05 08:52:59;;;;;;;1.75;1.45;;;;;;;31.66;29.90;97266.34;6215534;23;20023;-80
2023/09/05 08:55:27;;;;;;;1.70;1.60;;;;;;;32.20;29.44;97269.22;6216221;23;20031;-80
2023/09/05 08:57:57;;;;;;;2.60;1.70;;;;;;;32.72;28.21;97272.31;6216287;23;20450;-80
2023/09/05 09:00:26;;;;;;;2.30;1.60;;;;;;;33.14;28.05;97264.75;6216658;23;20077;-80
2023/09/05 09:02:54;;;;;;;1.60;1.48;;;;;;;33.45;27.53;97263.88;6216208;23;20079;-80
2023/09/05 09:05:23;;;;;;;1.50;1.30;;;;;;;33.68;26.95;97271.94;6216527;23;20021;-81
2023/09/05 09:07:54;;;;;;;3.47;1.63;;;;;;;34.06;26.75;97277.53;6215712;23;20243;-80
2023/09/05 09:10:23;;;;;;;1.73;1.53;;;;;;;34.33;25.83;97271.03;6215169;23;20055;-80
2023/09/05 09:12:54;;;;;;;5.45;1.83;;;;;;;34.36;25.25;97270.38;6215244;23;20042;-80
2023/09/05 09:15:25;;;;;;;5.15;1.50;;;;;;;34.35;25.76;97266.09;6214947;23;20461;-80
2023/09/05 09:17:53;;;;;;;1.70;1.30;;;;;;;34.45;25.66;97265.75;6215790;23;20056;-80
2023/09/05 09:20:27;;;;;;;1.65;1.13;;;;;;;34.47;25.44;97268.13;6215349;23;20023;-81
2023/09/05 09:22:55;;;;;;;2.97;1.25;;;;;;;34.52;25.47;97261.75;6215063;23;20072;-80
2023/09/05 09:25:23;;;;;;;2.00;1.38;;;;;;;34.78;25.75;97262.50;6215205;23;20486;-80
2023/09/05 09:27:52;;;;;;;2.97;1.40;;;;;;;34.93;25.03;97271.25;6215387;23;20408;-81
2023/09/05 09:30:23;;;;;;;2.95;1.40;;;;;;;34.94;25.14;97267.41;6215580;23;20017;-80
2023/09/05 09:32:52;;;;;;;3.90;1.17;;;;;;;34.99;24.89;97272.66;6215577;23;20524;-80
2023/09/05 09:35:20;;;;;;;1.15;1.05;;;;;;;34.59;25.29;97268.28;6216569;23;20056;-81
2023/09/05 09:37:50;;;;;;;3.83;1.50;;;;;;;34.10;26.67;97267.66;6217093;23;20024;-81
2023/09/05 09:40:17;;;;;;;4.35;1.50;;;;;;;33.69;27.49;97268.09;6217373;23;20029;-82
2023/09/05 09:42:47;;;;;;;2.13;1.23;;;;;;;33.15;28.60;97263.66;6217001;23;20358;-80
2023/09/05 09:45:17;;;;;;;1.67;1.33;;;;;;;32.67;29.41;97245.44;6217302;23;20079;-81
2023/09/05 09:47:48;;;;;;;1.55;1.15;;;;;;;32.22;29.45;97245.44;6217549;23;20067;-80
2023/09/05 09:50:17;;;;;;;2.83;1.47;;;;;;;31.88;30.35;97246.72;6217627;23;20017;-80
2023/09/05 09:52:48;;;;;;;4.78;1.45;;;;;;;31.67;30.62;97250.97;6216881;23;20017;-81
2023/09/05 09:55:18;;;;;;;1.42;1.33;;;;;;;31.61;31.88;97242.97;6226870;23;20048;-81
2023/09/05 09:57:56;;;;;;;2.35;1.30;;;;;;;31.78;30.55;97246.94;6220321;23;20314;-80
2023/09/05 10:00:25;;;;;;;2.85;1.25;;;;;;;32.22;30.15;97237.34;6219983;23;20017;-81
2023/09/05 10:02:54;;;;;;;1.80;1.48;;;;;;;32.93;28.87;97233.94;6219936;23;20402;-81
2023/09/05 10:05:23;;;;;;;2.78;1.25;;;;;;;33.78;28.71;97228.31;6220120;23;20094;-81
2023/09/05 10:07:52;;;;;;;1.80;1.20;;;;;;;34.63;26.98;97227.81;6219636;23;20020;-80
2023/09/05 10:10:22;;;;;;;3.10;1.30;;;;;;;35.20;26.54;97230.16;6218660;23;20047;-79
2023/09/05 10:12:52;;;;;;;2.45;1.58;;;;;;;35.50;25.98;97222.00;6216393;23;20021;-79
2023/09/05 10:15:21;;;;;;;6.53;1.25;;;;;;;35.51;25.20;97217.38;6216265;23;20024;-79
2023/09/05 10:17:51;;;;;;;1.60;1.15;;;;;;;35.14;25.76;97217.91;6217100;23;20028;-79
2023/09/05 10:20:21;;;;;;;0.98;0.98;;;;;;;34.63;26.17;97219.69;6219019;23;20025;-79
2023/09/05 10:23:17;;;;;;;7.28;1.20;;;;;;;33.99;27.06;97213.03;6215598;23;20028;-79
2023/09/05 10:25:48;;;;;;;1.20;1.10;;;;;;;33.43;28.30;97206.59;6216290;23;20534;-81
2023/09/05 10:28:15;;;;;;;3.08;1.45;;;;;;;32.93;28.66;97202.31;6218929;23;20020;-81
2023/09/05 10:30:49;;;;;;;2.05;1.40;;;;;;;32.42;29.73;97200.94;6218265;23;20040;-81
2023/09/05 10:33:18;;;;;;;2.17;1.15;;;;;;;32.10;30.75;97204.69;6218508;23;20104;-81
2023/09/05 10:35:45;;;;;;;1.38;1.00;;;;;;;31.79;29.96;97205.38;6218067;23;20462;-81
2023/09/05 10:38:13;;;;;;;1.52;1.00;;;;;;;31.40;30.51;97194.06;6217579;23;20557;-81
2023/09/05 10:40:41;;;;;;;1.38;1.10;;;;;;;31.00;30.66;97195.69;6218281;23;20435;-81
2023/09/05 10:43:21;;;;;;;1.10;1.00;;;;;;;30.60;31.34;97195.34;6217920;23;20024;-81
2023/09/05 10:45:55;;;;;;;1.20;1.10;;;;;;;30.20;31.29;97178.78;6217275;23;20470;-82
2023/09/05 10:48:33;;;;;;;2.20;1.05;;;;;;;29.90;31.75;97182.75;6217703;23;20378;-81
2023/09/05 10:51:10;;;;;;;2.15;0.93;;;;;;;29.67;31.83;97181.72;6217551;23;20020;-81
2023/09/05 10:53:39;;;;;;;1.08;0.98;;;;;;;29.45;32.20;97185.78;6216890;23;20494;-81
2023/09/05 10:56:40;;;;;;;0.90;0.80;;;;;;;29.16;32.76;97183.19;6216764;23;20359;-82
2023/09/05 10:59:25;;;;;;;1.20;1.00;;;;;;;29.03;33.07;97183.88;6217071;23;20378;-80
2023/09/05 11:01:56;;;;;;;2.67;1.08;;;;;;;28.95;33.12;97179.91;6215310;23;20021;-80
2023/09/05 11:04:27;;;;;;;;;;;;;;;28.90;33.13;97178.09;6215553;23;20485;-80
2023/09/05 11:07:01;;;;;;;1.02;1.02;;;;;;;28.92;34.36;97177.81;6215638;23;20301;-79
2023/09/05 11:09:29;;;;;;;1.70;0.90;;;;;;;29.01;33.61;97180.66;6215206;23;20028;-80
2023/09/05 11:11:57;;;;;;;1.52;0.85;;;;;;;29.03;33.42;97173.13;6215160;23;20017;-80
2023/09/05 11:14:34;;;;;;;1.40;1.25;;;;;;;28.99;33.12;97172.09;6215478;23;20335;-80
2023/09/05 11:17:02;;;;;;;0.98;0.70;;;;;;;28.91;33.26;97160.13;6216698;23;20485;-80
2023/09/05 11:19:31;;;;;;;1.70;1.08;;;;;;;28.83;32.89;97164.22;6216319;23;20016;-80
2023/09/05 11:22:08;;;;;;;2.47;0.80;;;;;;;28.76;33.07;97167.25;6216798;23;20040;-80
2023/09/05 11:24:37;;;;;;;1.98;0.80;;;;;;;28.73;33.77;97164.31;6216617;23;20043;-80
2023/09/05 11:27:06;;;;;;;1.85;1.10;;;;;;;28.65;33.73;97168.44;6216462;23;20521;-80
2023/09/05 11:29:35;;;;;;;1.95;1.48;;;;;;;28.57;34.74;97165.59;6216822;23;20099;-80
2023/09/05 11:32:03;;;;;;;1.55;1.13;;;;;;;28.53;35.60;97165.34;6216469;23;20020;-80
2023/09/05 11:34:31;;;;;;;1.40;1.30;;;;;;;28.56;35.77;97154.06;6216262;23;20051;-80
2023/09/05 11:37:00;;;;;;;1.88;1.33;;;;;;;28.60;35.45;97155.09;6216442;23;20047;-80
2023/09/05 11:39:28;;;;;;;5.70;1.60;;;;;;;28.64;35.92;97150.72;6216021;23;20052;-80
2023/09/05 11:41:58;;;;;;;1.40;1.30;;;;;;;28.70;35.75;97146.91;6216165;23;20048;-80
2023/09/05 11:44:33;;;;;;;3.47;1.30;;;;;;;28.73;35.69;97140.97;6215858;23;20087;-80
2023/09/05 11:47:02;;;;;;;1.50;1.40;;;;;;;28.72;35.19;97142.06;6216047;23;20021;-81
2023/09/05 11:49:30;;;;;;;1.65;1.38;;;;;;;28.64;35.91;97140.00;6216236;23;20394;-81
2023/09/05 11:52:00;;;;;;;3.72;1.20;;;;;;;28.60;36.18;97140.84;6215535;23;20016;-81
2023/09/05 11:54:28;;;;;;;2.90;1.30;;;;;;;28.59;36.23;97136.56;6216032;23;20032;-81